sensor_id;sensor_type;location;lat;lon;timestamp;pressure;altitude;pressure_sealevel;temperature;humidity
8451;BME280;4262;50.980;13.892;2024-01-30T00:00:02;86890.41;;;-142.97;51.18
8451;BME280;4262;50.980;13.892;2024-01-30T00:02:30;86835.22;;;-142.97;50.96
8451;BME280;4262;50.980;13.892;2024-01-30T00:04:58;86878.59;;;-142.97;50.94
8451;BME280;4262;50.980;13.892;2024-01-30T00:07:25;86854.94;;;-142.97;50.98
8451;BME280;4262;50.980;13.892;2024-01-30T00:09:52;86849.03;;;-142.97;50.68
8451;BME280;4262;50.980;13.892;2024-01-30T00:12:19;86831.28;;;-142.97;50.41
8451;BME280;4262;50.980;13.892;2024-01-30T00:14:46;86854.94;;;-142.97;50.18
8451;BME280;4262;50.980;13.892;2024-01-30T00:17:12;86823.41;;;-142.97;50.16
8451;BME280;4262;50.980;13.892;2024-01-30T00:19:40;86845.09;;;-142.97;50.47
8451;BME280;4262;50.980;13.892;2024-01-30T00:22:08;86833.25;;;-142.97;50.46
8451;BME280;4262;50.980;13.892;2024-01-30T00:24:35;86860.84;;;-142.97;50.79
8451;BME280;4262;50.980;13.892;2024-01-30T00:27:02;86847.06;;;-142.97;50.66
8451;BME280;4262;50.980;13.892;2024-01-30T00:29:29;86868.72;;;-142.97;50.67
8451;BME280;4262;50.980;13.892;2024-01-30T00:31:58;86874.66;;;-142.97;50.34
8451;BME280;4262;50.980;13.892;2024-01-30T00:34:25;86862.81;;;-142.97;50.10
8451;BME280;4262;50.980;13.892;2024-01-30T00:36:52;86835.22;;;-142.97;50.02
8451;BME280;4262;50.980;13.892;2024-01-30T00:39:20;86845.09;;;-142.97;50.01
8451;BME280;4262;50.980;13.892;2024-01-30T00:41:47;86910.13;;;-142.97;50.28
8451;BME280;4262;50.980;13.892;2024-01-30T00:44:14;86870.69;;;-142.97;50.25
8451;BME280;4262;50.980;13.892;2024-01-30T00:46:41;86843.13;;;-142.97;49.86
8451;BME280;4262;50.980;13.892;2024-01-30T00:49:08;86825.38;;;-142.97;49.71
8451;BME280;4262;50.980;13.892;2024-01-30T00:51:34;86837.19;;;-142.97;49.72
8451;BME280;4262;50.980;13.892;2024-01-30T00:54:02;86852.97;;;-142.97;49.49
8451;BME280;4262;50.980;13.892;2024-01-30T00:56:30;86843.13;;;-142.97;49.65
8451;BME280;4262;50.980;13.892;2024-01-30T00:58:57;86837.19;;;-142.97;49.41
8451;BME280;4262;50.980;13.892;2024-01-30T01:01:24;86823.41;;;-142.97;49.90
8451;BME280;4262;50.980;13.892;2024-01-30T01:03:50;86866.75;;;-142.97;50.59
8451;BME280;4262;50.980;13.892;2024-01-30T01:06:17;86864.78;;;-142.97;50.25
8451;BME280;4262;50.980;13.892;2024-01-30T01:08:44;86876.63;;;-142.97;50.37
8451;BME280;4262;50.980;13.892;2024-01-30T01:11:11;86886.47;;;-142.97;50.39
8451;BME280;4262;50.980;13.892;2024-01-30T01:13:39;86866.75;;;-142.97;50.11
8451;BME280;4262;50.980;13.892;2024-01-30T01:16:06;86866.75;;;-142.97;50.45
8451;BME280;4262;50.980;13.892;2024-01-30T01:18:33;86935.72;;;-142.97;50.95
8451;BME280;4262;50.980;13.892;2024-01-30T01:21:00;86890.41;;;-142.97;50.81
8451;BME280;4262;50.980;13.892;2024-01-30T01:23:26;86864.78;;;-142.97;50.67
8451;BME280;4262;50.980;13.892;2024-01-30T01:25:53;86862.81;;;-142.97;50.85
8451;BME280;4262;50.980;13.892;2024-01-30T01:28:20;86870.69;;;-142.97;50.40
8451;BME280;4262;50.980;13.892;2024-01-30T01:30:49;86854.94;;;-142.97;50.56
8451;BME280;4262;50.980;13.892;2024-01-30T01:33:16;86833.25;;;-142.97;50.48
8451;BME280;4262;50.980;13.892;2024-01-30T01:35:43;86961.34;;;-142.97;50.57
8451;BME280;4262;50.980;13.892;2024-01-30T01:38:10;87038.22;;;-142.97;50.09
8451;BME280;4262;50.980;13.892;2024-01-30T01:40:37;86854.94;;;-142.97;50.01
8451;BME280;4262;50.980;13.892;2024-01-30T01:43:05;86837.19;;;-142.97;49.79
8451;BME280;4262;50.980;13.892;2024-01-30T01:45:32;86866.75;;;-142.97;50.04
8451;BME280;4262;50.980;13.892;2024-01-30T01:48:00;86837.19;;;-142.97;50.38
8451;BME280;4262;50.980;13.892;2024-01-30T01:50:27;86872.66;;;-142.97;50.26
8451;BME280;4262;50.980;13.892;2024-01-30T01:52:54;86880.56;;;-142.97;50.60
8451;BME280;4262;50.980;13.892;2024-01-30T01:55:22;86878.59;;;-142.97;50.38
8451;BME280;4262;50.980;13.892;2024-01-30T01:57:51;86878.59;;;-142.97;50.70
8451;BME280;4262;50.980;13.892;2024-01-30T02:00:19;86872.66;;;-142.97;50.93
8451;BME280;4262;50.980;13.892;2024-01-30T02:02:46;86785.97;;;-142.97;49.21
8451;BME280;4262;50.980;13.892;2024-01-30T02:05:15;86774.13;;;-142.97;48.83
8451;BME280;4262;50.980;13.892;2024-01-30T02:07:43;86586.94;;;-142.97;48.83
8451;BME280;4262;50.980;13.892;2024-01-30T02:10:10;86852.97;;;-142.97;49.25
8451;BME280;4262;50.980;13.892;2024-01-30T02:12:37;86916.03;;;-142.97;49.71
8451;BME280;4262;50.980;13.892;2024-01-30T02:15:05;86878.59;;;-142.97;50.21
8451;BME280;4262;50.980;13.892;2024-01-30T02:17:33;86862.81;;;-142.97;50.24
8451;BME280;4262;50.980;13.892;2024-01-30T02:20:00;86839.16;;;-142.97;49.99
8451;BME280;4262;50.980;13.892;2024-01-30T02:22:32;86500.25;;;-142.97;49.96
8451;BME280;4262;50.980;13.892;2024-01-30T02:25:00;86845.09;;;-142.97;49.94
8451;BME280;4262;50.980;13.892;2024-01-30T02:27:27;86876.63;;;-142.97;49.65
8451;BME280;4262;50.980;13.892;2024-01-30T02:29:54;86880.56;;;-142.97;50.25
8451;BME280;4262;50.980;13.892;2024-01-30T02:32:21;86882.53;;;-142.97;50.61
8451;BME280;4262;50.980;13.892;2024-01-30T02:34:47;86918.00;;;-142.97;50.69
8451;BME280;4262;50.980;13.892;2024-01-30T02:37:14;86890.41;;;-142.97;50.98
8451;BME280;4262;50.980;13.892;2024-01-30T02:39:42;86906.16;;;-142.97;51.03
8451;BME280;4262;50.980;13.892;2024-01-30T02:42:09;86906.16;;;-142.97;50.37
8451;BME280;4262;50.980;13.892;2024-01-30T02:44:36;86843.13;;;-142.97;49.75
8451;BME280;4262;50.980;13.892;2024-01-30T02:47:03;86864.78;;;-142.97;50.49
8451;BME280;4262;50.980;13.892;2024-01-30T02:49:30;86888.44;;;-142.97;50.64
8451;BME280;4262;50.980;13.892;2024-01-30T02:51:56;86890.41;;;-142.97;51.42
8451;BME280;4262;50.980;13.892;2024-01-30T02:54:23;86888.44;;;-142.97;51.99
8451;BME280;4262;50.980;13.892;2024-01-30T02:56:51;86933.75;;;-142.97;51.13
8451;BME280;4262;50.980;13.892;2024-01-30T02:59:18;86957.41;;;-142.97;52.02
8451;BME280;4262;50.980;13.892;2024-01-30T03:01:45;86935.72;;;-142.97;51.80
8451;BME280;4262;50.980;13.892;2024-01-30T03:04:13;86888.44;;;-142.97;51.31
8451;BME280;4262;50.980;13.892;2024-01-30T03:06:44;86923.91;;;-142.97;51.70
8451;BME280;4262;50.980;13.892;2024-01-30T03:09:11;86929.81;;;-142.97;51.58
8451;BME280;4262;50.980;13.892;2024-01-30T03:11:38;86910.13;;;-142.97;51.43
8451;BME280;4262;50.980;13.892;2024-01-30T03:14:06;86921.94;;;-142.97;51.53
8451;BME280;4262;50.980;13.892;2024-01-30T03:16:36;86921.94;;;-142.97;51.88
8451;BME280;4262;50.980;13.892;2024-01-30T03:19:03;86941.66;;;-142.97;51.58
8451;BME280;4262;50.980;13.892;2024-01-30T03:21:30;86925.88;;;-142.97;51.56
8451;BME280;4262;50.980;13.892;2024-01-30T03:23:57;86916.03;;;-142.97;51.50
8451;BME280;4262;50.980;13.892;2024-01-30T03:26:25;86943.63;;;-142.97;51.69
8451;BME280;4262;50.980;13.892;2024-01-30T03:28:51;86918.00;;;-142.97;52.05
8451;BME280;4262;50.980;13.892;2024-01-30T03:31:20;86961.34;;;-142.97;52.42
8451;BME280;4262;50.980;13.892;2024-01-30T03:33:46;86969.22;;;-142.97;52.65
8451;BME280;4262;50.980;13.892;2024-01-30T03:36:15;86979.09;;;-142.97;52.62
8451;BME280;4262;50.980;13.892;2024-01-30T03:38:42;86937.69;;;-142.97;52.65
8451;BME280;4262;50.980;13.892;2024-01-30T03:41:09;87057.91;;;-142.97;52.58
8451;BME280;4262;50.980;13.892;2024-01-30T03:43:36;86963.31;;;-142.97;52.79
8451;BME280;4262;50.980;13.892;2024-01-30T03:46:03;86949.53;;;-142.97;52.47
8451;BME280;4262;50.980;13.892;2024-01-30T03:48:32;86967.25;;;-142.97;52.77
8451;BME280;4262;50.980;13.892;2024-01-30T03:50:59;86981.06;;;-142.97;52.67
8451;BME280;4262;50.980;13.892;2024-01-30T03:53:26;86971.19;;;-142.97;53.02
8451;BME280;4262;50.980;13.892;2024-01-30T03:55:52;86967.25;;;-142.97;53.01
8451;BME280;4262;50.980;13.892;2024-01-30T03:58:19;86985.00;;;-142.97;52.73
8451;BME280;4262;50.980;13.892;2024-01-30T04:00:46;87010.63;;;-142.97;53.61
8451;BME280;4262;50.980;13.892;2024-01-30T04:03:12;86998.78;;;-142.97;53.78
8451;BME280;4262;50.980;13.892;2024-01-30T04:05:42;87012.59;;;-142.97;53.78
8451;BME280;4262;50.980;13.892;2024-01-30T04:08:08;86985.00;;;-142.97;53.86
8451;BME280;4262;50.980;13.892;2024-01-30T04:10:35;87036.25;;;-142.97;53.98
8451;BME280;4262;50.980;13.892;2024-01-30T04:13:02;87038.22;;;-142.97;53.82
8451;BME280;4262;50.980;13.892;2024-01-30T04:15:29;87079.59;;;-142.97;54.01
8451;BME280;4262;50.980;13.892;2024-01-30T04:17:57;86994.84;;;-142.97;53.62
8451;BME280;4262;50.980;13.892;2024-01-30T04:20:24;86996.81;;;-142.97;54.24
8451;BME280;4262;50.980;13.892;2024-01-30T04:22:52;87101.28;;;-142.97;53.68
8451;BME280;4262;50.980;13.892;2024-01-30T04:25:19;87010.63;;;-142.97;53.63
8451;BME280;4262;50.980;13.892;2024-01-30T04:27:46;86998.78;;;-142.97;53.95
8451;BME280;4262;50.980;13.892;2024-01-30T04:30:13;87014.56;;;-142.97;53.95
8451;BME280;4262;50.980;13.892;2024-01-30T04:32:40;86977.13;;;-142.97;53.62
8451;BME280;4262;50.980;13.892;2024-01-30T04:35:07;86983.03;;;-142.97;53.73
8451;BME280;4262;50.980;13.892;2024-01-30T04:37:34;86969.22;;;-142.97;53.80
8451;BME280;4262;50.980;13.892;2024-01-30T04:40:03;86988.94;;;-142.97;53.42
8451;BME280;4262;50.980;13.892;2024-01-30T04:42:30;86990.91;;;-142.97;53.84
8451;BME280;4262;50.980;13.892;2024-01-30T04:44:57;87030.31;;;-142.97;54.05
8451;BME280;4262;50.980;13.892;2024-01-30T04:47:23;87036.25;;;-142.97;53.54
8451;BME280;4262;50.980;13.892;2024-01-30T04:49:51;86973.19;;;-142.97;52.70
8451;BME280;4262;50.980;13.892;2024-01-30T04:52:18;86979.09;;;-142.97;53.58
8451;BME280;4262;50.980;13.892;2024-01-30T04:54:44;86986.97;;;-142.97;52.90
8451;BME280;4262;50.980;13.892;2024-01-30T04:57:12;86959.38;;;-142.97;53.01
8451;BME280;4262;50.980;13.892;2024-01-30T04:59:39;87012.59;;;-142.97;53.42
8451;BME280;4262;50.980;13.892;2024-01-30T05:02:06;86988.94;;;-142.97;54.41
8451;BME280;4262;50.980;13.892;2024-01-30T05:04:33;86996.81;;;-142.97;52.45
8451;BME280;4262;50.980;13.892;2024-01-30T05:07:00;86923.91;;;-142.97;52.72
8451;BME280;4262;50.980;13.892;2024-01-30T05:09:27;86923.91;;;-142.97;52.26
8451;BME280;4262;50.980;13.892;2024-01-30T05:11:54;86961.34;;;-142.97;52.62
8451;BME280;4262;50.980;13.892;2024-01-30T05:14:22;86965.28;;;-142.97;52.61
8451;BME280;4262;50.980;13.892;2024-01-30T05:16:49;86983.03;;;-142.97;52.98
8451;BME280;4262;50.980;13.892;2024-01-30T05:19:15;86949.53;;;-142.97;52.95
8451;BME280;4262;50.980;13.892;2024-01-30T05:21:42;86955.44;;;-142.97;52.83
8451;BME280;4262;50.980;13.892;2024-01-30T05:24:10;86919.97;;;-142.97;52.79
8451;BME280;4262;50.980;13.892;2024-01-30T05:26:36;86981.06;;;-142.97;52.52
8451;BME280;4262;50.980;13.892;2024-01-30T05:29:05;86921.94;;;-142.97;52.98
8451;BME280;4262;50.980;13.892;2024-01-30T05:31:33;86965.28;;;-142.97;53.15
8451;BME280;4262;50.980;13.892;2024-01-30T05:34:00;86935.72;;;-142.97;52.61
8451;BME280;4262;50.980;13.892;2024-01-30T05:36:27;86969.22;;;-142.97;52.77
8451;BME280;4262;50.980;13.892;2024-01-30T05:38:55;86977.13;;;-142.97;53.12
8451;BME280;4262;50.980;13.892;2024-01-30T05:41:22;86835.22;;;-142.97;53.51
8451;BME280;4262;50.980;13.892;2024-01-30T05:43:49;86981.06;;;-142.97;53.42
8451;BME280;4262;50.980;13.892;2024-01-30T05:46:16;86990.91;;;-142.97;53.04
8451;BME280;4262;50.980;13.892;2024-01-30T05:48:44;86977.13;;;-142.97;53.34
8451;BME280;4262;50.980;13.892;2024-01-30T05:51:11;86992.88;;;-142.97;53.50
8451;BME280;4262;50.980;13.892;2024-01-30T05:53:37;86965.28;;;-142.97;53.33
8451;BME280;4262;50.980;13.892;2024-01-30T05:56:05;86939.69;;;-142.97;53.75
8451;BME280;4262;50.980;13.892;2024-01-30T05:58:32;86977.13;;;-142.97;53.27
8451;BME280;4262;50.980;13.892;2024-01-30T06:00:58;86998.78;;;-142.97;53.73
8451;BME280;4262;50.980;13.892;2024-01-30T06:03:25;86985.00;;;-142.97;53.27
8451;BME280;4262;50.980;13.892;2024-01-30T06:05:53;87111.13;;;-142.97;53.47
8451;BME280;4262;50.980;13.892;2024-01-30T06:08:20;86977.13;;;-142.97;53.31
8451;BME280;4262;50.980;13.892;2024-01-30T06:10:47;86955.44;;;-142.97;53.25
8451;BME280;4262;50.980;13.892;2024-01-30T06:13:14;86977.13;;;-142.97;53.42
8451;BME280;4262;50.980;13.892;2024-01-30T06:15:41;86967.25;;;-142.97;52.98
8451;BME280;4262;50.980;13.892;2024-01-30T06:18:08;86929.81;;;-142.97;52.91
8451;BME280;4262;50.980;13.892;2024-01-30T06:20:35;86961.34;;;-142.97;53.33
8451;BME280;4262;50.980;13.892;2024-01-30T06:23:03;86937.69;;;-142.97;52.52
8451;BME280;4262;50.980;13.892;2024-01-30T06:25:30;86953.47;;;-142.97;52.82
8451;BME280;4262;50.980;13.892;2024-01-30T06:27:57;86986.97;;;-142.97;52.62
8451;BME280;4262;50.980;13.892;2024-01-30T06:30:24;86963.31;;;-142.97;52.68
8451;BME280;4262;50.980;13.892;2024-01-30T06:32:50;86953.47;;;-142.97;52.80
8451;BME280;4262;50.980;13.892;2024-01-30T06:35:17;86961.34;;;-142.97;52.50
8451;BME280;4262;50.980;13.892;2024-01-30T06:37:44;86967.25;;;-142.97;53.26
8451;BME280;4262;50.980;13.892;2024-01-30T06:40:13;86967.25;;;-142.97;52.90
8451;BME280;4262;50.980;13.892;2024-01-30T06:42:40;86912.09;;;-142.97;52.40
8451;BME280;4262;50.980;13.892;2024-01-30T06:45:07;86923.91;;;-142.97;52.44
8451;BME280;4262;50.980;13.892;2024-01-30T06:47:34;86955.44;;;-142.97;52.89
8451;BME280;4262;50.980;13.892;2024-01-30T06:50:01;86949.53;;;-142.97;52.48
8451;BME280;4262;50.980;13.892;2024-01-30T06:52:29;86949.53;;;-142.97;52.68
8451;BME280;4262;50.980;13.892;2024-01-30T06:54:55;86908.16;;;-142.97;52.36
8451;BME280;4262;50.980;13.892;2024-01-30T06:57:23;86965.28;;;-142.97;52.46
8451;BME280;4262;50.980;13.892;2024-01-30T06:59:51;86925.88;;;-142.97;52.71
8451;BME280;4262;50.980;13.892;2024-01-30T07:02:18;86904.19;;;-142.97;52.37
8451;BME280;4262;50.980;13.892;2024-01-30T07:04:45;86923.91;;;-142.97;52.07
8451;BME280;4262;50.980;13.892;2024-01-30T07:07:12;86925.88;;;-142.97;52.45
8451;BME280;4262;50.980;13.892;2024-01-30T07:09:40;86919.97;;;-142.97;52.09
8451;BME280;4262;50.980;13.892;2024-01-30T07:12:07;86923.91;;;-142.97;51.89
8451;BME280;4262;50.980;13.892;2024-01-30T07:14:36;86918.00;;;-142.97;52.21
8451;BME280;4262;50.980;13.892;2024-01-30T07:17:03;86918.00;;;-142.97;51.58
8451;BME280;4262;50.980;13.892;2024-01-30T07:19:30;86900.25;;;-142.97;52.05
8451;BME280;4262;50.980;13.892;2024-01-30T07:21:57;86882.53;;;-142.97;51.77
8451;BME280;4262;50.980;13.892;2024-01-30T07:24:24;86884.50;;;-142.97;51.80
8451;BME280;4262;50.980;13.892;2024-01-30T07:26:51;86908.16;;;-142.97;51.37
8451;BME280;4262;50.980;13.892;2024-01-30T07:29:18;86817.50;;;-142.97;50.56
8451;BME280;4262;50.980;13.892;2024-01-30T07:31:46;86851.00;;;-142.97;50.96
8451;BME280;4262;50.980;13.892;2024-01-30T07:34:13;86835.22;;;-142.97;51.52
8451;BME280;4262;50.980;13.892;2024-01-30T07:36:40;86839.16;;;-142.97;50.94
8451;BME280;4262;50.980;13.892;2024-01-30T07:39:06;86813.56;;;-142.97;50.46
8451;BME280;4262;50.980;13.892;2024-01-30T07:41:33;86817.50;;;-142.97;50.70
8451;BME280;4262;50.980;13.892;2024-01-30T07:44:00;86803.69;;;-142.97;50.24
8451;BME280;4262;50.980;13.892;2024-01-30T07:46:27;86782.03;;;-142.97;50.15
8451;BME280;4262;50.980;13.892;2024-01-30T07:48:55;86791.88;;;-142.97;50.21
8451;BME280;4262;50.980;13.892;2024-01-30T07:51:22;86780.06;;;-142.97;49.57
8451;BME280;4262;50.980;13.892;2024-01-30T07:53:49;86738.66;;;-142.97;48.82
8451;BME280;4262;50.980;13.892;2024-01-30T07:56:16;86770.19;;;-142.97;49.65
8451;BME280;4262;50.980;13.892;2024-01-30T07:58:43;86782.03;;;-142.97;49.51
8451;BME280;4262;50.980;13.892;2024-01-30T08:01:10;86667.72;;;-142.97;49.30
8451;BME280;4262;50.980;13.892;2024-01-30T08:03:37;86770.19;;;-142.97;48.96
8451;BME280;4262;50.980;13.892;2024-01-30T08:06:07;86740.63;;;-142.97;49.02
8451;BME280;4262;50.980;13.892;2024-01-30T08:08:34;86713.06;;;-142.97;48.76
8451;BME280;4262;50.980;13.892;2024-01-30T08:11:01;86707.16;;;-142.97;48.34
8451;BME280;4262;50.980;13.892;2024-01-30T08:13:28;86687.44;;;-142.97;48.41
8451;BME280;4262;50.980;13.892;2024-01-30T08:15:55;86744.59;;;-142.97;48.70
8451;BME280;4262;50.980;13.892;2024-01-30T08:18:22;86697.28;;;-142.97;48.49
8451;BME280;4262;50.980;13.892;2024-01-30T08:20:48;86736.69;;;-142.97;48.55
8451;BME280;4262;50.980;13.892;2024-01-30T08:23:17;86285.47;;;-142.97;47.45
8451;BME280;4262;50.980;13.892;2024-01-30T08:25:43;86689.41;;;-142.97;47.61
8451;BME280;4262;50.980;13.892;2024-01-30T08:28:10;86679.56;;;-142.97;47.90
8451;BME280;4262;50.980;13.892;2024-01-30T08:30:37;86709.13;;;-142.97;48.01
8451;BME280;4262;50.980;13.892;2024-01-30T08:33:04;86651.97;;;-142.97;47.39
8451;BME280;4262;50.980;13.892;2024-01-30T08:35:31;86683.50;;;-142.97;47.86
8451;BME280;4262;50.980;13.892;2024-01-30T08:37:59;86651.97;;;-142.97;46.92
8451;BME280;4262;50.980;13.892;2024-01-30T08:40:27;86657.88;;;-142.97;47.18
8451;BME280;4262;50.980;13.892;2024-01-30T08:42:54;86616.50;;;-142.97;46.75
8451;BME280;4262;50.980;13.892;2024-01-30T08:45:21;86594.81;;;-142.97;46.41
8451;BME280;4262;50.980;13.892;2024-01-30T08:47:47;86632.25;;;-142.97;46.90
8451;BME280;4262;50.980;13.892;2024-01-30T08:50:14;86651.97;;;-142.97;47.12
8451;BME280;4262;50.980;13.892;2024-01-30T08:52:41;86646.06;;;-142.97;47.21
8451;BME280;4262;50.980;13.892;2024-01-30T08:55:08;86653.94;;;-142.97;47.09
8451;BME280;4262;50.980;13.892;2024-01-30T08:57:36;86616.50;;;-142.97;46.44
8451;BME280;4262;50.980;13.892;2024-01-30T09:00:05;86606.66;;;-142.97;46.68
8451;BME280;4262;50.980;13.892;2024-01-30T09:02:32;86590.88;;;-142.97;46.58
8451;BME280;4262;50.980;13.892;2024-01-30T09:04:59;86644.09;;;-142.97;46.37
8451;BME280;4262;50.980;13.892;2024-01-30T09:07:25;86594.81;;;-142.97;46.40
8451;BME280;4262;50.980;13.892;2024-01-30T09:09:52;86636.22;;;-142.97;46.51
8451;BME280;4262;50.980;13.892;2024-01-30T09:12:19;86579.06;;;-142.97;46.68
8451;BME280;4262;50.980;13.892;2024-01-30T09:14:47;86535.72;;;-142.97;46.12
8451;BME280;4262;50.980;13.892;2024-01-30T09:17:14;86561.31;;;-142.97;46.25
8451;BME280;4262;50.980;13.892;2024-01-30T09:19:40;86490.38;;;-142.97;45.88
8451;BME280;4262;50.980;13.892;2024-01-30T09:22:07;86535.72;;;-142.97;45.56
8451;BME280;4262;50.980;13.892;2024-01-30T09:24:34;86516.00;;;-142.97;45.20
8451;BME280;4262;50.980;13.892;2024-01-30T09:27:01;86502.22;;;-142.97;45.18
8451;BME280;4262;50.980;13.892;2024-01-30T09:29:28;86510.09;;;-142.97;45.25
8451;BME280;4262;50.980;13.892;2024-01-30T09:31:56;86594.81;;;-142.97;45.03
8451;BME280;4262;50.980;13.892;2024-01-30T09:34:23;86506.16;;;-142.97;44.64
8451;BME280;4262;50.980;13.892;2024-01-30T09:36:49;86516.00;;;-142.97;44.60
8451;BME280;4262;50.980;13.892;2024-01-30T09:39:16;86484.47;;;-142.97;44.99
8451;BME280;4262;50.980;13.892;2024-01-30T09:41:48;86464.78;;;-142.97;44.60
8451;BME280;4262;50.980;13.892;2024-01-30T09:44:16;86452.94;;;-142.97;44.44
8451;BME280;4262;50.980;13.892;2024-01-30T09:46:43;86456.91;;;-142.97;44.21
8451;BME280;4262;50.980;13.892;2024-01-30T09:49:14;86421.44;;;-142.97;43.82
8451;BME280;4262;50.980;13.892;2024-01-30T09:51:41;86407.63;;;-142.97;43.81
8451;BME280;4262;50.980;13.892;2024-01-30T09:54:08;86514.03;;;-142.97;43.47
8451;BME280;4262;50.980;13.892;2024-01-30T09:56:36;86334.72;;;-142.97;43.22
8451;BME280;4262;50.980;13.892;2024-01-30T09:59:03;86334.72;;;-142.97;42.66
8451;BME280;4262;50.980;13.892;2024-01-30T10:01:31;86299.25;;;-142.97;42.22
8451;BME280;4262;50.980;13.892;2024-01-30T10:03:58;86360.34;;;-142.97;43.17
8451;BME280;4262;50.980;13.892;2024-01-30T10:06:26;86265.78;;;-142.97;42.23
8451;BME280;4262;50.980;13.892;2024-01-30T10:08:54;86250.00;;;-142.97;41.70
8451;BME280;4262;50.980;13.892;2024-01-30T10:11:21;86114.06;;;-142.97;41.12
8451;BME280;4262;50.980;13.892;2024-01-30T10:13:49;85887.50;;;-142.97;40.54
8451;BME280;4262;50.980;13.892;2024-01-30T10:16:15;85722.00;;;-142.97;40.01
8451;BME280;4262;50.980;13.892;2024-01-30T10:18:42;85649.13;;;-142.97;39.30
8451;BME280;4262;50.980;13.892;2024-01-30T10:21:09;85471.84;;;-142.97;38.64
8451;BME280;4262;50.980;13.892;2024-01-30T10:23:38;85456.09;;;-142.97;38.25
8451;BME280;4262;50.980;13.892;2024-01-30T10:26:04;85527.00;;;-142.97;37.91
8451;BME280;4262;50.980;13.892;2024-01-30T10:28:33;85893.41;;;-142.97;37.58
8451;BME280;4262;50.980;13.892;2024-01-30T10:31:00;85465.94;;;-142.97;37.70
8451;BME280;4262;50.980;13.892;2024-01-30T10:33:27;85395.03;;;-142.97;37.46
8451;BME280;4262;50.980;13.892;2024-01-30T10:35:56;85196.06;;;-142.97;36.43
8451;BME280;4262;50.980;13.892;2024-01-30T10:38:28;85351.69;;;-142.97;37.07
8451;BME280;4262;50.980;13.892;2024-01-30T10:40:58;85450.16;;;-142.97;37.08
8451;BME280;4262;50.980;13.892;2024-01-30T10:43:31;85353.66;;;-142.97;36.73
8451;BME280;4262;50.980;13.892;2024-01-30T10:46:06;85357.59;;;-142.97;36.75
8451;BME280;4262;50.980;13.892;2024-01-30T10:48:36;85467.91;;;-142.97;36.05
8451;BME280;4262;50.980;13.892;2024-01-30T10:51:09;85347.75;;;-142.97;36.58
8451;BME280;4262;50.980;13.892;2024-01-30T10:53:38;85517.16;;;-142.97;37.14
8451;BME280;4262;50.980;13.892;2024-01-30T10:56:08;85477.75;;;-142.97;37.35
8451;BME280;4262;50.980;13.892;2024-01-30T10:58:36;85509.28;;;-142.97;38.01
8451;BME280;4262;50.980;13.892;2024-01-30T11:01:04;85412.75;;;-142.97;37.62
8451;BME280;4262;50.980;13.892;2024-01-30T11:03:32;85393.03;;;-142.97;37.39
8451;BME280;4262;50.980;13.892;2024-01-30T11:06:00;85497.44;;;-142.97;38.57
8451;BME280;4262;50.980;13.892;2024-01-30T11:08:27;85530.94;;;-142.97;37.98
8451;BME280;4262;50.980;13.892;2024-01-30T11:10:56;85852.03;;;-142.97;39.33
8451;BME280;4262;50.980;13.892;2024-01-30T11:13:29;85463.97;;;-142.97;38.98
8451;BME280;4262;50.980;13.892;2024-01-30T11:16:00;85668.81;;;-142.97;38.24
8451;BME280;4262;50.980;13.892;2024-01-30T11:18:29;85635.34;;;-142.97;38.20
8451;BME280;4262;50.980;13.892;2024-01-30T11:20:56;85702.31;;;-142.97;38.62
8451;BME280;4262;50.980;13.892;2024-01-30T11:23:23;85802.78;;;-142.97;39.30
8451;BME280;4262;50.980;13.892;2024-01-30T11:25:52;85511.25;;;-142.97;38.95
8451;BME280;4262;50.980;13.892;2024-01-30T11:28:20;85428.50;;;-142.97;38.63
8451;BME280;4262;50.980;13.892;2024-01-30T11:30:49;85631.41;;;-142.97;38.15
8451;BME280;4262;50.980;13.892;2024-01-30T11:33:27;85593.97;;;-142.97;38.13
8451;BME280;4262;50.980;13.892;2024-01-30T11:35:57;85710.19;;;-142.97;38.13
8451;BME280;4262;50.980;13.892;2024-01-30T11:38:25;85688.53;;;-142.97;38.30
8451;BME280;4262;50.980;13.892;2024-01-30T11:40:53;85759.44;;;-142.97;38.83
8451;BME280;4262;50.980;13.892;2024-01-30T11:43:19;85753.53;;;-142.97;38.08
8451;BME280;4262;50.980;13.892;2024-01-30T11:45:46;85773.25;;;-142.97;38.86
8451;BME280;4262;50.980;13.892;2024-01-30T11:48:14;85978.13;;;-142.97;39.50
8451;BME280;4262;50.980;13.892;2024-01-30T11:50:42;85905.22;;;-142.97;39.97
8451;BME280;4262;50.980;13.892;2024-01-30T11:53:10;85919.03;;;-142.97;39.66
8451;BME280;4262;50.980;13.892;2024-01-30T11:55:37;85932.81;;;-142.97;39.43
8451;BME280;4262;50.980;13.892;2024-01-30T11:58:04;85855.97;;;-142.97;38.94
8451;BME280;4262;50.980;13.892;2024-01-30T12:00:31;86001.75;;;-142.97;39.63
8451;BME280;4262;50.980;13.892;2024-01-30T12:02:58;85940.69;;;-142.97;39.90
8451;BME280;4262;50.980;13.892;2024-01-30T12:05:28;85934.78;;;-142.97;40.13
8451;BME280;4262;50.980;13.892;2024-01-30T12:07:55;86041.16;;;-142.97;40.34
8451;BME280;4262;50.980;13.892;2024-01-30T12:10:24;86086.47;;;-142.97;40.25
8451;BME280;4262;50.980;13.892;2024-01-30T12:12:52;85974.19;;;-142.97;39.58
8451;BME280;4262;50.980;13.892;2024-01-30T12:15:21;85954.47;;;-142.97;39.91
8451;BME280;4262;50.980;13.892;2024-01-30T12:17:49;86159.38;;;-142.97;39.98
8451;BME280;4262;50.980;13.892;2024-01-30T12:20:18;86185.00;;;-142.97;40.22
8451;BME280;4262;50.980;13.892;2024-01-30T12:22:48;86307.16;;;-142.97;40.70
8451;BME280;4262;50.980;13.892;2024-01-30T12:25:16;86287.44;;;-142.97;41.52
8451;BME280;4262;50.980;13.892;2024-01-30T12:27:44;86261.84;;;-142.97;42.09
8451;BME280;4262;50.980;13.892;2024-01-30T12:30:12;86129.81;;;-142.97;41.10
8451;BME280;4262;50.980;13.892;2024-01-30T12:32:40;86096.34;;;-142.97;40.34
8451;BME280;4262;50.980;13.892;2024-01-30T12:35:07;86106.19;;;-142.97;40.35
8451;BME280;4262;50.980;13.892;2024-01-30T12:37:35;86066.78;;;-142.97;40.11
8451;BME280;4262;50.980;13.892;2024-01-30T12:40:04;86181.06;;;-142.97;40.37
8451;BME280;4262;50.980;13.892;2024-01-30T12:42:31;86291.38;;;-142.97;40.80
8451;BME280;4262;50.980;13.892;2024-01-30T12:44:58;86330.78;;;-142.97;40.95
8451;BME280;4262;50.980;13.892;2024-01-30T12:47:25;86344.59;;;-142.97;40.94
8451;BME280;4262;50.980;13.892;2024-01-30T12:49:51;86360.34;;;-142.97;41.73